首页
METAR-TAF:

METAR-TAF

机场 :

佛罗伦萨-佩雷托拉机场

佛罗伦萨, 意大利

纬度: 43-48N, 经度: 011-12E, 海拔: 40米

当前天气观测

该预报发布于28分钟前的06:20 UTC
风速2节,风向多变
温度 4°C
湿度 87%
气压 1017 hPa
能见度10公里或以上
多云层高于5500英尺

METAR: LIRQ 010620Z VRB02KT 9999 BKN055 04/02 Q1017

时间: 07:48 (06:48 UTC)

预报

该预报发布于1小时和48分钟前的05:00 UTC
预报有效从01日的 06点(UTC)到 02日的 06点(UTC)
风速6节,风向多变
能见度10公里或以上
散云层高于3000英尺
短暂存在
从 01日的 15点(UTC)到 02日的 03点(UTC)
能見度: 4000

TAF: LIRQ 010500Z 0106/0206 VRB06KT 9999 SCT030 TEMPO 0115/0203 4000 RA

超过4000个机场的气象观测和天气预报(METAR&TAF报告)。

可查询的气象台以黄色和红色小点在地图上表示。

将鼠标移到小点上方,可查看气象台名称。

然后点击查看天气观测和预报。

如需切换地图:点击带黑十字的绿色按钮放大地图;点击带横线的绿色按钮缩小地图;或者点击绿色箭头查看邻近地区的地图。


METAR-TAF: